sensor_id;sensor_type;location;lat;lon;timestamp;P1;durP1;ratioP1;P2;durP2;ratioP2
23099;SDS011;53791;50.696;4.396;2022-10-17T00:00:58;4.87;;;3.72;;
23099;SDS011;53791;50.696;4.396;2022-10-17T00:03:26;3.50;;;3.20;;
23099;SDS011;53791;50.696;4.396;2022-10-17T00:05:54;3.72;;;3.30;;
23099;SDS011;53791;50.696;4.396;2022-10-17T00:08:21;3.87;;;3.45;;
23099;SDS011;53791;50.696;4.396;2022-10-17T00:10:56;3.83;;;3.42;;
23099;SDS011;53791;50.696;4.396;2022-10-17T00:13:25;4.15;;;3.75;;
23099;SDS011;53791;50.696;4.396;2022-10-17T00:15:52;3.70;;;3.40;;
23099;SDS011;53791;50.696;4.396;2022-10-17T00:18:20;3.58;;;3.22;;
23099;SDS011;53791;50.696;4.396;2022-10-17T00:20:48;5.85;;;3.83;;
23099;SDS011;53791;50.696;4.396;2022-10-17T00:23:16;4.90;;;4.20;;
23099;SDS011;53791;50.696;4.396;2022-10-17T00:25:43;3.37;;;3.08;;
23099;SDS011;53791;50.696;4.396;2022-10-17T00:28:11;3.55;;;3.25;;
23099;SDS011;53791;50.696;4.396;2022-10-17T00:30:40;3.30;;;3.00;;
23099;SDS011;53791;50.696;4.396;2022-10-17T00:33:07;3.70;;;3.30;;
23099;SDS011;53791;50.696;4.396;2022-10-17T00:35:35;16.77;;;4.65;;
23099;SDS011;53791;50.696;4.396;2022-10-17T00:38:03;4.12;;;3.72;;
23099;SDS011;53791;50.696;4.396;2022-10-17T00:40:30;4.37;;;3.85;;
23099;SDS011;53791;50.696;4.396;2022-10-17T00:42:58;4.47;;;4.00;;
23099;SDS011;53791;50.696;4.396;2022-10-17T00:45:26;3.83;;;3.52;;
23099;SDS011;53791;50.696;4.396;2022-10-17T00:47:59;5.58;;;4.10;;
23099;SDS011;53791;50.696;4.396;2022-10-17T00:50:28;3.52;;;3.22;;
23099;SDS011;53791;50.696;4.396;2022-10-17T00:52:57;3.85;;;3.47;;
23099;SDS011;53791;50.696;4.396;2022-10-17T00:55:29;4.15;;;3.80;;
23099;SDS011;53791;50.696;4.396;2022-10-17T00:57:59;3.55;;;3.25;;
23099;SDS011;53791;50.696;4.396;2022-10-17T01:00:29;6.87;;;3.85;;
23099;SDS011;53791;50.696;4.396;2022-10-17T01:02:56;4.40;;;4.00;;
23099;SDS011;53791;50.696;4.396;2022-10-17T01:05:24;3.80;;;3.50;;
23099;SDS011;53791;50.696;4.396;2022-10-17T01:07:51;3.47;;;3.17;;
23099;SDS011;53791;50.696;4.396;2022-10-17T01:10:19;4.37;;;3.98;;
23099;SDS011;53791;50.696;4.396;2022-10-17T01:12:54;4.37;;;3.98;;
23099;SDS011;53791;50.696;4.396;2022-10-17T01:23:52;7.12;;;4.37;;
23099;SDS011;53791;50.696;4.396;2022-10-17T01:26:43;4.22;;;3.83;;
23099;SDS011;53791;50.696;4.396;2022-10-17T01:32:08;4.95;;;4.45;;
23099;SDS011;53791;50.696;4.396;2022-10-17T01:34:40;4.30;;;3.92;;
23099;SDS011;53791;50.696;4.396;2022-10-17T01:37:19;5.47;;;4.60;;
23099;SDS011;53791;50.696;4.396;2022-10-17T01:42:38;8.35;;;4.72;;
23099;SDS011;53791;50.696;4.396;2022-10-17T01:45:20;4.10;;;3.80;;
23099;SDS011;53791;50.696;4.396;2022-10-17T01:47:46;4.33;;;3.92;;
23099;SDS011;53791;50.696;4.396;2022-10-17T01:50:22;6.12;;;4.22;;
23099;SDS011;53791;50.696;4.396;2022-10-17T01:53:00;4.15;;;3.77;;
23099;SDS011;53791;50.696;4.396;2022-10-17T01:55:32;4.45;;;4.05;;
23099;SDS011;53791;50.696;4.396;2022-10-17T01:58:05;4.53;;;4.08;;
23099;SDS011;53791;50.696;4.396;2022-10-17T02:00:35;4.72;;;4.33;;
23099;SDS011;53791;50.696;4.396;2022-10-17T02:03:07;4.83;;;4.42;;
23099;SDS011;53791;50.696;4.396;2022-10-17T02:05:38;4.10;;;3.75;;
23099;SDS011;53791;50.696;4.396;2022-10-17T02:08:07;4.47;;;4.08;;
23099;SDS011;53791;50.696;4.396;2022-10-17T02:16:14;4.35;;;3.98;;
23099;SDS011;53791;50.696;4.396;2022-10-17T02:19:01;5.10;;;4.60;;
23099;SDS011;53791;50.696;4.396;2022-10-17T02:21:44;4.30;;;3.90;;
23099;SDS011;53791;50.696;4.396;2022-10-17T02:24:30;8.85;;;4.65;;
23099;SDS011;53791;50.696;4.396;2022-10-17T02:27:07;4.80;;;4.40;;
23099;SDS011;53791;50.696;4.396;2022-10-17T02:29:37;4.95;;;4.50;;
23099;SDS011;53791;50.696;4.396;2022-10-17T02:32:07;8.13;;;4.87;;
23099;SDS011;53791;50.696;4.396;2022-10-17T02:34:40;4.42;;;4.03;;
23099;SDS011;53791;50.696;4.396;2022-10-17T02:37:10;4.78;;;4.37;;
23099;SDS011;53791;50.696;4.396;2022-10-17T02:39:40;5.37;;;4.62;;
23099;SDS011;53791;50.696;4.396;2022-10-17T02:42:10;5.67;;;4.78;;
23099;SDS011;53791;50.696;4.396;2022-10-17T02:44:39;5.35;;;4.85;;
23099;SDS011;53791;50.696;4.396;2022-10-17T02:47:20;4.80;;;4.30;;
23099;SDS011;53791;50.696;4.396;2022-10-17T02:49:46;4.20;;;3.80;;
23099;SDS011;53791;50.696;4.396;2022-10-17T02:52:24;5.03;;;4.62;;
23099;SDS011;53791;50.696;4.396;2022-10-17T02:57:24;5.28;;;4.78;;
23099;SDS011;53791;50.696;4.396;2022-10-17T02:59:52;5.30;;;4.75;;
23099;SDS011;53791;50.696;4.396;2022-10-17T03:02:21;5.75;;;4.97;;
23099;SDS011;53791;50.696;4.396;2022-10-17T03:04:49;9.68;;;5.33;;
23099;SDS011;53791;50.696;4.396;2022-10-17T03:07:16;4.78;;;4.37;;
23099;SDS011;53791;50.696;4.396;2022-10-17T03:09:44;4.75;;;4.28;;
23099;SDS011;53791;50.696;4.396;2022-10-17T03:12:11;6.70;;;5.12;;
23099;SDS011;53791;50.696;4.396;2022-10-17T03:14:39;5.70;;;4.92;;
23099;SDS011;53791;50.696;4.396;2022-10-17T03:17:06;16.62;;;4.67;;
23099;SDS011;53791;50.696;4.396;2022-10-17T03:19:34;6.12;;;5.53;;
23099;SDS011;53791;50.696;4.396;2022-10-17T03:22:01;5.92;;;4.80;;
23099;SDS011;53791;50.696;4.396;2022-10-17T03:24:29;4.95;;;4.55;;
23099;SDS011;53791;50.696;4.396;2022-10-17T03:26:56;4.30;;;3.98;;
23099;SDS011;53791;50.696;4.396;2022-10-17T03:29:25;4.33;;;4.03;;
23099;SDS011;53791;50.696;4.396;2022-10-17T03:31:53;5.62;;;4.70;;
23099;SDS011;53791;50.696;4.396;2022-10-17T03:34:21;4.45;;;4.08;;
23099;SDS011;53791;50.696;4.396;2022-10-17T03:36:49;7.05;;;4.70;;
23099;SDS011;53791;50.696;4.396;2022-10-17T03:39:16;5.05;;;4.47;;
23099;SDS011;53791;50.696;4.396;2022-10-17T03:41:44;4.80;;;4.40;;
23099;SDS011;53791;50.696;4.396;2022-10-17T03:44:11;4.28;;;3.92;;
23099;SDS011;53791;50.696;4.396;2022-10-17T03:46:39;5.83;;;5.10;;
23099;SDS011;53791;50.696;4.396;2022-10-17T03:49:07;5.45;;;4.55;;
23099;SDS011;53791;50.696;4.396;2022-10-17T03:51:35;4.72;;;4.33;;
23099;SDS011;53791;50.696;4.396;2022-10-17T03:54:03;5.03;;;4.53;;
23099;SDS011;53791;50.696;4.396;2022-10-17T03:56:30;6.30;;;4.70;;
23099;SDS011;53791;50.696;4.396;2022-10-17T03:58:58;5.15;;;4.65;;
23099;SDS011;53791;50.696;4.396;2022-10-17T04:01:25;5.60;;;5.10;;
23099;SDS011;53791;50.696;4.396;2022-10-17T04:03:54;9.50;;;5.67;;
23099;SDS011;53791;50.696;4.396;2022-10-17T04:06:22;4.78;;;4.42;;
23099;SDS011;53791;50.696;4.396;2022-10-17T04:08:50;5.17;;;4.67;;
23099;SDS011;53791;50.696;4.396;2022-10-17T04:11:18;7.87;;;5.42;;
23099;SDS011;53791;50.696;4.396;2022-10-17T04:13:46;5.00;;;4.50;;
23099;SDS011;53791;50.696;4.396;2022-10-17T04:16:17;5.40;;;5.00;;
23099;SDS011;53791;50.696;4.396;2022-10-17T04:18:46;7.33;;;4.55;;
23099;SDS011;53791;50.696;4.396;2022-10-17T04:21:15;5.50;;;5.00;;
23099;SDS011;53791;50.696;4.396;2022-10-17T04:23:43;5.00;;;4.60;;
23099;SDS011;53791;50.696;4.396;2022-10-17T04:26:11;5.35;;;4.95;;
23099;SDS011;53791;50.696;4.396;2022-10-17T04:28:38;4.92;;;4.53;;
23099;SDS011;53791;50.696;4.396;2022-10-17T04:31:07;5.60;;;4.90;;
23099;SDS011;53791;50.696;4.396;2022-10-17T04:33:37;5.62;;;4.90;;
23099;SDS011;53791;50.696;4.396;2022-10-17T04:36:11;6.70;;;5.05;;
23099;SDS011;53791;50.696;4.396;2022-10-17T04:38:40;5.17;;;4.78;;
23099;SDS011;53791;50.696;4.396;2022-10-17T04:41:09;5.42;;;4.92;;
23099;SDS011;53791;50.696;4.396;2022-10-17T04:43:38;4.92;;;4.53;;
23099;SDS011;53791;50.696;4.396;2022-10-17T04:46:09;5.37;;;4.87;;
23099;SDS011;53791;50.696;4.396;2022-10-17T04:48:38;5.75;;;5.15;;
23099;SDS011;53791;50.696;4.396;2022-10-17T04:51:07;5.72;;;5.17;;
23099;SDS011;53791;50.696;4.396;2022-10-17T04:53:40;5.42;;;5.03;;
23099;SDS011;53791;50.696;4.396;2022-10-17T04:56:09;4.92;;;4.53;;
23099;SDS011;53791;50.696;4.396;2022-10-17T04:58:42;4.75;;;4.35;;
23099;SDS011;53791;50.696;4.396;2022-10-17T05:01:11;5.60;;;5.10;;
23099;SDS011;53791;50.696;4.396;2022-10-17T05:03:41;5.67;;;5.17;;
23099;SDS011;53791;50.696;4.396;2022-10-17T05:06:09;6.37;;;5.28;;
23099;SDS011;53791;50.696;4.396;2022-10-17T05:08:41;4.90;;;4.50;;
23099;SDS011;53791;50.696;4.396;2022-10-17T05:11:16;4.70;;;4.30;;
23099;SDS011;53791;50.696;4.396;2022-10-17T05:13:49;4.87;;;4.47;;
23099;SDS011;53791;50.696;4.396;2022-10-17T05:16:22;5.20;;;4.75;;
23099;SDS011;53791;50.696;4.396;2022-10-17T05:18:50;13.85;;;5.00;;
23099;SDS011;53791;50.696;4.396;2022-10-17T05:21:20;5.47;;;4.97;;
23099;SDS011;53791;50.696;4.396;2022-10-17T05:23:50;5.70;;;5.20;;
23099;SDS011;53791;50.696;4.396;2022-10-17T05:26:18;5.28;;;4.87;;
23099;SDS011;53791;50.696;4.396;2022-10-17T05:28:45;6.12;;;5.00;;
23099;SDS011;53791;50.696;4.396;2022-10-17T05:31:13;6.05;;;5.45;;
23099;SDS011;53791;50.696;4.396;2022-10-17T05:33:41;6.97;;;5.10;;
23099;SDS011;53791;50.696;4.396;2022-10-17T05:36:08;6.00;;;5.50;;
23099;SDS011;53791;50.696;4.396;2022-10-17T05:38:36;5.60;;;5.10;;
23099;SDS011;53791;50.696;4.396;2022-10-17T05:41:04;6.03;;;5.40;;
23099;SDS011;53791;50.696;4.396;2022-10-17T05:43:32;5.60;;;5.10;;
23099;SDS011;53791;50.696;4.396;2022-10-17T05:46:04;6.03;;;5.53;;
23099;SDS011;53791;50.696;4.396;2022-10-17T05:48:32;5.72;;;5.25;;
23099;SDS011;53791;50.696;4.396;2022-10-17T05:51:02;5.80;;;5.30;;
23099;SDS011;53791;50.696;4.396;2022-10-17T05:53:31;5.10;;;4.70;;
23099;SDS011;53791;50.696;4.396;2022-10-17T05:56:01;5.50;;;5.10;;
23099;SDS011;53791;50.696;4.396;2022-10-17T05:58:31;5.22;;;4.83;;
23099;SDS011;53791;50.696;4.396;2022-10-17T06:01:00;5.55;;;5.15;;
23099;SDS011;53791;50.696;4.396;2022-10-17T06:03:29;5.53;;;5.12;;
23099;SDS011;53791;50.696;4.396;2022-10-17T06:06:02;5.25;;;4.85;;
23099;SDS011;53791;50.696;4.396;2022-10-17T06:08:33;5.55;;;5.10;;
23099;SDS011;53791;50.696;4.396;2022-10-17T06:11:02;5.05;;;4.65;;
23099;SDS011;53791;50.696;4.396;2022-10-17T06:13:30;5.95;;;5.45;;
23099;SDS011;53791;50.696;4.396;2022-10-17T06:15:57;6.17;;;5.60;;
23099;SDS011;53791;50.696;4.396;2022-10-17T06:18:25;5.78;;;5.28;;
23099;SDS011;53791;50.696;4.396;2022-10-17T06:20:52;6.12;;;5.62;;
23099;SDS011;53791;50.696;4.396;2022-10-17T06:23:20;5.17;;;4.78;;
23099;SDS011;53791;50.696;4.396;2022-10-17T06:25:47;6.10;;;5.30;;
23099;SDS011;53791;50.696;4.396;2022-10-17T06:28:15;5.70;;;5.25;;
23099;SDS011;53791;50.696;4.396;2022-10-17T06:30:42;5.22;;;4.83;;
23099;SDS011;53791;50.696;4.396;2022-10-17T06:33:10;5.42;;;5.03;;
23099;SDS011;53791;50.696;4.396;2022-10-17T06:35:37;5.35;;;4.95;;
23099;SDS011;53791;50.696;4.396;2022-10-17T06:38:05;6.55;;;5.92;;
23099;SDS011;53791;50.696;4.396;2022-10-17T06:40:32;6.62;;;5.95;;
23099;SDS011;53791;50.696;4.396;2022-10-17T06:43:00;5.45;;;5.05;;
23099;SDS011;53791;50.696;4.396;2022-10-17T06:45:27;6.00;;;5.53;;
23099;SDS011;53791;50.696;4.396;2022-10-17T06:47:55;5.60;;;5.10;;
23099;SDS011;53791;50.696;4.396;2022-10-17T06:50:22;5.95;;;5.55;;
23099;SDS011;53791;50.696;4.396;2022-10-17T06:52:50;6.55;;;5.95;;
23099;SDS011;53791;50.696;4.396;2022-10-17T06:55:18;6.30;;;5.65;;
23099;SDS011;53791;50.696;4.396;2022-10-17T06:57:45;5.50;;;5.10;;
23099;SDS011;53791;50.696;4.396;2022-10-17T07:00:13;6.47;;;5.87;;
23099;SDS011;53791;50.696;4.396;2022-10-17T07:02:41;5.40;;;5.00;;
23099;SDS011;53791;50.696;4.396;2022-10-17T07:05:09;5.83;;;5.33;;
23099;SDS011;53791;50.696;4.396;2022-10-17T07:07:36;5.45;;;5.05;;
23099;SDS011;53791;50.696;4.396;2022-10-17T07:10:04;6.22;;;5.70;;
23099;SDS011;53791;50.696;4.396;2022-10-17T07:12:33;7.20;;;5.60;;
23099;SDS011;53791;50.696;4.396;2022-10-17T07:15:02;6.87;;;6.25;;
23099;SDS011;53791;50.696;4.396;2022-10-17T07:17:30;6.45;;;5.53;;
23099;SDS011;53791;50.696;4.396;2022-10-17T07:19:58;5.70;;;5.30;;
23099;SDS011;53791;50.696;4.396;2022-10-17T07:22:27;5.67;;;5.28;;
23099;SDS011;53791;50.696;4.396;2022-10-17T07:24:54;21.00;;;5.90;;
23099;SDS011;53791;50.696;4.396;2022-10-17T07:27:22;6.40;;;5.87;;
23099;SDS011;53791;50.696;4.396;2022-10-17T07:29:49;6.47;;;5.87;;
23099;SDS011;53791;50.696;4.396;2022-10-17T07:32:17;5.92;;;5.42;;
23099;SDS011;53791;50.696;4.396;2022-10-17T07:34:44;5.40;;;5.00;;
23099;SDS011;53791;50.696;4.396;2022-10-17T07:37:12;6.33;;;5.83;;
23099;SDS011;53791;50.696;4.396;2022-10-17T07:39:39;5.37;;;4.97;;
23099;SDS011;53791;50.696;4.396;2022-10-17T07:42:07;5.75;;;5.35;;
23099;SDS011;53791;50.696;4.396;2022-10-17T07:44:34;5.30;;;4.90;;
23099;SDS011;53791;50.696;4.396;2022-10-17T07:47:02;5.62;;;5.22;;
23099;SDS011;53791;50.696;4.396;2022-10-17T07:49:29;5.40;;;4.97;;
23099;SDS011;53791;50.696;4.396;2022-10-17T07:51:57;5.28;;;4.87;;
23099;SDS011;53791;50.696;4.396;2022-10-17T07:54:24;5.80;;;5.30;;
23099;SDS011;53791;50.696;4.396;2022-10-17T07:56:52;6.08;;;5.47;;
23099;SDS011;53791;50.696;4.396;2022-10-17T07:59:19;5.50;;;5.10;;
23099;SDS011;53791;50.696;4.396;2022-10-17T08:01:47;5.45;;;5.05;;
23099;SDS011;53791;50.696;4.396;2022-10-17T08:04:14;5.40;;;5.00;;
23099;SDS011;53791;50.696;4.396;2022-10-17T08:06:42;5.28;;;4.87;;
23099;SDS011;53791;50.696;4.396;2022-10-17T08:09:09;5.58;;;5.17;;
23099;SDS011;53791;50.696;4.396;2022-10-17T08:11:37;5.60;;;5.20;;
23099;SDS011;53791;50.696;4.396;2022-10-17T08:14:07;8.48;;;7.87;;
23099;SDS011;53791;50.696;4.396;2022-10-17T08:16:36;8.75;;;8.15;;
23099;SDS011;53791;50.696;4.396;2022-10-17T08:19:03;8.70;;;8.00;;
23099;SDS011;53791;50.696;4.396;2022-10-17T08:21:32;8.10;;;7.40;;
23099;SDS011;53791;50.696;4.396;2022-10-17T08:24:00;8.60;;;8.00;;
23099;SDS011;53791;50.696;4.396;2022-10-17T08:26:28;8.83;;;7.90;;
23099;SDS011;53791;50.696;4.396;2022-10-17T08:28:55;8.98;;;8.13;;
23099;SDS011;53791;50.696;4.396;2022-10-17T08:31:23;7.87;;;7.17;;
23099;SDS011;53791;50.696;4.396;2022-10-17T08:33:52;8.00;;;7.40;;
23099;SDS011;53791;50.696;4.396;2022-10-17T08:36:21;8.00;;;7.40;;
23099;SDS011;53791;50.696;4.396;2022-10-17T08:38:50;7.78;;;7.17;;
23099;SDS011;53791;50.696;4.396;2022-10-17T08:47:14;9.13;;;8.33;;
23099;SDS011;53791;50.696;4.396;2022-10-17T08:49:47;8.25;;;7.62;;
23099;SDS011;53791;50.696;4.396;2022-10-17T08:54:56;8.00;;;7.30;;
23099;SDS011;53791;50.696;4.396;2022-10-17T08:57:24;7.62;;;7.03;;
23099;SDS011;53791;50.696;4.396;2022-10-17T08:59:53;7.70;;;7.05;;
23099;SDS011;53791;50.696;4.396;2022-10-17T09:02:39;8.65;;;7.95;;
23099;SDS011;53791;50.696;4.396;2022-10-17T09:08:03;11.83;;;8.68;;
23099;SDS011;53791;50.696;4.396;2022-10-17T09:21:48;7.42;;;6.83;;
23099;SDS011;53791;50.696;4.396;2022-10-17T09:27:47;7.65;;;7.12;;
23099;SDS011;53791;50.696;4.396;2022-10-17T09:30:22;8.13;;;7.53;;
23099;SDS011;53791;50.696;4.396;2022-10-17T09:32:57;8.08;;;7.47;;
23099;SDS011;53791;50.696;4.396;2022-10-17T09:35:26;8.03;;;7.22;;
23099;SDS011;53791;50.696;4.396;2022-10-17T09:37:54;8.10;;;7.47;;
23099;SDS011;53791;50.696;4.396;2022-10-17T09:40:27;7.45;;;6.95;;
23099;SDS011;53791;50.696;4.396;2022-10-17T09:42:56;7.22;;;6.72;;
23099;SDS011;53791;50.696;4.396;2022-10-17T09:45:24;7.92;;;7.25;;
23099;SDS011;53791;50.696;4.396;2022-10-17T09:50:41;7.78;;;7.22;;
23099;SDS011;53791;50.696;4.396;2022-10-17T09:53:12;8.00;;;7.33;;
23099;SDS011;53791;50.696;4.396;2022-10-17T09:55:53;8.78;;;8.08;;
23099;SDS011;53791;50.696;4.396;2022-10-17T10:01:26;13.05;;;8.50;;
23099;SDS011;53791;50.696;4.396;2022-10-17T10:04:08;6.85;;;6.35;;
23099;SDS011;53791;50.696;4.396;2022-10-17T10:06:38;8.50;;;7.80;;
23099;SDS011;53791;50.696;4.396;2022-10-17T10:09:19;8.18;;;7.58;;
23099;SDS011;53791;50.696;4.396;2022-10-17T10:11:49;8.60;;;7.90;;
23099;SDS011;53791;50.696;4.396;2022-10-17T10:14:20;8.25;;;7.55;;
23099;SDS011;53791;50.696;4.396;2022-10-17T10:16:57;8.55;;;7.75;;
23099;SDS011;53791;50.696;4.396;2022-10-17T10:19:27;9.28;;;8.48;;
23099;SDS011;53791;50.696;4.396;2022-10-17T10:22:05;8.08;;;7.37;;
23099;SDS011;53791;50.696;4.396;2022-10-17T10:24:33;8.33;;;7.72;;
23099;SDS011;53791;50.696;4.396;2022-10-17T10:27:01;8.60;;;7.95;;
23099;SDS011;53791;50.696;4.396;2022-10-17T10:29:33;8.53;;;7.92;;
23099;SDS011;53791;50.696;4.396;2022-10-17T10:32:21;15.25;;;8.33;;
23099;SDS011;53791;50.696;4.396;2022-10-17T10:37:29;8.65;;;8.05;;
23099;SDS011;53791;50.696;4.396;2022-10-17T10:40:05;8.23;;;7.62;;
23099;SDS011;53791;50.696;4.396;2022-10-17T10:42:37;7.95;;;7.35;;
23099;SDS011;53791;50.696;4.396;2022-10-17T10:45:15;7.62;;;7.12;;
23099;SDS011;53791;50.696;4.396;2022-10-17T10:47:58;8.53;;;7.83;;
23099;SDS011;53791;50.696;4.396;2022-10-17T10:50:43;13.75;;;8.20;;
23099;SDS011;53791;50.696;4.396;2022-10-17T10:56:03;7.50;;;7.00;;
23099;SDS011;53791;50.696;4.396;2022-10-17T10:58:36;7.40;;;6.83;;
23099;SDS011;53791;50.696;4.396;2022-10-17T11:04:19;7.70;;;7.10;;
23099;SDS011;53791;50.696;4.396;2022-10-17T11:06:47;7.65;;;7.15;;
23099;SDS011;53791;50.696;4.396;2022-10-17T11:09:41;7.90;;;7.35;;
23099;SDS011;53791;50.696;4.396;2022-10-17T11:18:04;10.55;;;8.18;;
23099;SDS011;53791;50.696;4.396;2022-10-17T11:20:58;8.20;;;7.60;;
23099;SDS011;53791;50.696;4.396;2022-10-17T11:23:33;7.90;;;7.30;;
23099;SDS011;53791;50.696;4.396;2022-10-17T11:26:03;7.78;;;7.17;;
23099;SDS011;53791;50.696;4.396;2022-10-17T11:28:34;33.08;;;8.28;;
23099;SDS011;53791;50.696;4.396;2022-10-17T11:31:06;8.33;;;7.72;;
23099;SDS011;53791;50.696;4.396;2022-10-17T11:36:18;8.43;;;7.72;;
23099;SDS011;53791;50.696;4.396;2022-10-17T11:41:28;8.25;;;7.55;;
23099;SDS011;53791;50.696;4.396;2022-10-17T11:43:58;9.30;;;8.50;;
23099;SDS011;53791;50.696;4.396;2022-10-17T11:46:27;7.85;;;7.25;;
23099;SDS011;53791;50.696;4.396;2022-10-17T11:49:00;8.60;;;7.90;;
23099;SDS011;53791;50.696;4.396;2022-10-17T11:56:52;10.48;;;8.13;;
23099;SDS011;53791;50.696;4.396;2022-10-17T12:01:57;8.30;;;7.70;;
23099;SDS011;53791;50.696;4.396;2022-10-17T12:07:47;8.10;;;7.50;;
23099;SDS011;53791;50.696;4.396;2022-10-17T12:15:57;9.05;;;8.35;;
23099;SDS011;53791;50.696;4.396;2022-10-17T12:18:46;8.18;;;7.37;;
23099;SDS011;53791;50.696;4.396;2022-10-17T12:21:16;8.13;;;7.47;;
23099;SDS011;53791;50.696;4.396;2022-10-17T12:23:50;8.83;;;8.13;;
23099;SDS011;53791;50.696;4.396;2022-10-17T12:26:27;8.95;;;7.33;;
23099;SDS011;53791;50.696;4.396;2022-10-17T12:28:55;8.43;;;7.80;;
23099;SDS011;53791;50.696;4.396;2022-10-17T12:31:24;9.70;;;8.70;;
23099;SDS011;53791;50.696;4.396;2022-10-17T12:33:55;8.20;;;7.53;;
23099;SDS011;53791;50.696;4.396;2022-10-17T12:36:35;8.48;;;7.87;;
23099;SDS011;53791;50.696;4.396;2022-10-17T12:49:42;8.73;;;8.13;;
23099;SDS011;53791;50.696;4.396;2022-10-17T12:54:54;9.28;;;8.10;;
23099;SDS011;53791;50.696;4.396;2022-10-17T12:57:31;8.63;;;8.03;;
23099;SDS011;53791;50.696;4.396;2022-10-17T13:00:13;9.08;;;8.38;;
23099;SDS011;53791;50.696;4.396;2022-10-17T13:02:43;8.55;;;7.85;;
23099;SDS011;53791;50.696;4.396;2022-10-17T13:05:15;8.90;;;8.18;;
23099;SDS011;53791;50.696;4.396;2022-10-17T13:07:45;9.63;;;8.65;;
23099;SDS011;53791;50.696;4.396;2022-10-17T13:10:26;8.95;;;8.25;;
23099;SDS011;53791;50.696;4.396;2022-10-17T13:12:51;8.35;;;7.75;;
23099;SDS011;53791;50.696;4.396;2022-10-17T13:15:21;9.60;;;8.85;;
23099;SDS011;53791;50.696;4.396;2022-10-17T13:17:56;11.25;;;8.65;;
23099;SDS011;53791;50.696;4.396;2022-10-17T13:20:25;8.98;;;8.20;;
23099;SDS011;53791;50.696;4.396;2022-10-17T13:22:55;8.83;;;8.00;;
23099;SDS011;53791;50.696;4.396;2022-10-17T13:25:23;8.90;;;8.20;;
23099;SDS011;53791;50.696;4.396;2022-10-17T13:28:01;8.90;;;8.18;;
23099;SDS011;53791;50.696;4.396;2022-10-17T13:30:34;8.45;;;7.85;;
23099;SDS011;53791;50.696;4.396;2022-10-17T13:33:03;8.48;;;7.78;;
23099;SDS011;53791;50.696;4.396;2022-10-17T13:35:34;10.15;;;9.03;;
23099;SDS011;53791;50.696;4.396;2022-10-17T13:38:04;8.75;;;8.05;;
23099;SDS011;53791;50.696;4.396;2022-10-17T13:40:41;10.82;;;8.10;;
23099;SDS011;53791;50.696;4.396;2022-10-17T13:43:16;8.60;;;7.97;;
23099;SDS011;53791;50.696;4.396;2022-10-17T13:45:56;7.97;;;7.37;;
23099;SDS011;53791;50.696;4.396;2022-10-17T13:48:27;8.70;;;8.00;;
23099;SDS011;53791;50.696;4.396;2022-10-17T13:50:57;7.87;;;7.28;;
23099;SDS011;53791;50.696;4.396;2022-10-17T13:53:34;7.47;;;6.87;;
23099;SDS011;53791;50.696;4.396;2022-10-17T13:56:14;7.65;;;7.03;;
23099;SDS011;53791;50.696;4.396;2022-10-17T13:58:53;6.87;;;6.17;;
23099;SDS011;53791;50.696;4.396;2022-10-17T14:01:25;6.20;;;5.75;;
23099;SDS011;53791;50.696;4.396;2022-10-17T14:03:54;6.25;;;5.80;;
23099;SDS011;53791;50.696;4.396;2022-10-17T14:06:23;6.70;;;6.20;;
23099;SDS011;53791;50.696;4.396;2022-10-17T14:08:55;6.10;;;5.70;;
23099;SDS011;53791;50.696;4.396;2022-10-17T14:11:39;6.10;;;5.60;;
23099;SDS011;53791;50.696;4.396;2022-10-17T14:14:18;6.75;;;6.25;;
23099;SDS011;53791;50.696;4.396;2022-10-17T14:16:48;6.50;;;6.00;;
23099;SDS011;53791;50.696;4.396;2022-10-17T14:22:02;6.90;;;6.40;;
23099;SDS011;53791;50.696;4.396;2022-10-17T14:24:43;7.10;;;6.50;;
23099;SDS011;53791;50.696;4.396;2022-10-17T14:29:55;6.30;;;5.90;;
23099;SDS011;53791;50.696;4.396;2022-10-17T14:32:27;6.75;;;6.15;;
23099;SDS011;53791;50.696;4.396;2022-10-17T14:34:56;6.85;;;6.28;;
23099;SDS011;53791;50.696;4.396;2022-10-17T14:37:31;7.08;;;6.58;;
23099;SDS011;53791;50.696;4.396;2022-10-17T14:40:18;8.43;;;6.67;;
23099;SDS011;53791;50.696;4.396;2022-10-17T14:42:48;6.80;;;6.30;;
23099;SDS011;53791;50.696;4.396;2022-10-17T14:45:27;7.05;;;6.55;;
23099;SDS011;53791;50.696;4.396;2022-10-17T14:47:55;6.83;;;6.33;;
23099;SDS011;53791;50.696;4.396;2022-10-17T14:50:29;7.40;;;6.90;;
23099;SDS011;53791;50.696;4.396;2022-10-17T14:52:58;9.48;;;6.65;;
23099;SDS011;53791;50.696;4.396;2022-10-17T14:55:34;7.00;;;6.50;;
23099;SDS011;53791;50.696;4.396;2022-10-17T14:58:15;7.28;;;6.70;;
23099;SDS011;53791;50.696;4.396;2022-10-17T15:00:50;7.60;;;6.60;;
23099;SDS011;53791;50.696;4.396;2022-10-17T15:03:17;8.55;;;6.53;;
23099;SDS011;53791;50.696;4.396;2022-10-17T15:05:45;6.60;;;6.10;;
23099;SDS011;53791;50.696;4.396;2022-10-17T15:08:14;6.85;;;6.30;;
23099;SDS011;53791;50.696;4.396;2022-10-17T15:10:43;6.95;;;6.35;;
23099;SDS011;53791;50.696;4.396;2022-10-17T15:13:12;6.17;;;5.78;;
23099;SDS011;53791;50.696;4.396;2022-10-17T15:15:40;6.55;;;6.05;;
23099;SDS011;53791;50.696;4.396;2022-10-17T15:18:13;6.83;;;6.33;;
23099;SDS011;53791;50.696;4.396;2022-10-17T15:20:39;6.78;;;6.28;;
23099;SDS011;53791;50.696;4.396;2022-10-17T15:23:07;6.78;;;6.17;;
23099;SDS011;53791;50.696;4.396;2022-10-17T15:25:34;6.25;;;5.85;;
23099;SDS011;53791;50.696;4.396;2022-10-17T15:28:02;6.40;;;5.90;;
23099;SDS011;53791;50.696;4.396;2022-10-17T15:30:31;6.12;;;5.70;;
23099;SDS011;53791;50.696;4.396;2022-10-17T15:33:00;6.53;;;6.03;;
23099;SDS011;53791;50.696;4.396;2022-10-17T15:35:27;6.08;;;5.67;;
23099;SDS011;53791;50.696;4.396;2022-10-17T15:37:56;5.97;;;5.55;;
23099;SDS011;53791;50.696;4.396;2022-10-17T15:40:25;6.12;;;5.72;;
23099;SDS011;53791;50.696;4.396;2022-10-17T15:42:54;7.03;;;6.47;;
23099;SDS011;53791;50.696;4.396;2022-10-17T15:45:22;7.15;;;6.55;;
23099;SDS011;53791;50.696;4.396;2022-10-17T15:47:51;7.70;;;7.00;;
23099;SDS011;53791;50.696;4.396;2022-10-17T15:50:23;7.00;;;6.50;;
23099;SDS011;53791;50.696;4.396;2022-10-17T15:52:52;8.00;;;7.30;;
23099;SDS011;53791;50.696;4.396;2022-10-17T15:55:20;9.55;;;8.55;;
23099;SDS011;53791;50.696;4.396;2022-10-17T15:57:48;7.50;;;6.90;;
23099;SDS011;53791;50.696;4.396;2022-10-17T16:00:20;9.13;;;7.47;;
23099;SDS011;53791;50.696;4.396;2022-10-17T16:02:49;7.00;;;6.40;;
23099;SDS011;53791;50.696;4.396;2022-10-17T16:05:18;8.13;;;7.33;;
23099;SDS011;53791;50.696;4.396;2022-10-17T16:07:49;7.10;;;6.50;;
23099;SDS011;53791;50.696;4.396;2022-10-17T16:10:17;7.78;;;6.95;;
23099;SDS011;53791;50.696;4.396;2022-10-17T16:12:45;7.20;;;6.70;;
23099;SDS011;53791;50.696;4.396;2022-10-17T16:15:15;7.53;;;6.83;;
23099;SDS011;53791;50.696;4.396;2022-10-17T16:17:44;7.50;;;6.83;;
23099;SDS011;53791;50.696;4.396;2022-10-17T16:20:12;8.50;;;7.70;;
23099;SDS011;53791;50.696;4.396;2022-10-17T16:22:41;6.40;;;5.90;;
23099;SDS011;53791;50.696;4.396;2022-10-17T16:25:15;7.25;;;6.60;;
23099;SDS011;53791;50.696;4.396;2022-10-17T16:27:44;7.08;;;6.47;;
23099;SDS011;53791;50.696;4.396;2022-10-17T16:30:13;7.35;;;6.75;;
23099;SDS011;53791;50.696;4.396;2022-10-17T16:32:42;6.60;;;6.10;;
23099;SDS011;53791;50.696;4.396;2022-10-17T16:35:12;6.67;;;6.12;;
23099;SDS011;53791;50.696;4.396;2022-10-17T16:37:41;6.53;;;6.03;;
23099;SDS011;53791;50.696;4.396;2022-10-17T16:40:10;6.92;;;6.33;;
23099;SDS011;53791;50.696;4.396;2022-10-17T16:42:38;6.37;;;5.87;;
23099;SDS011;53791;50.696;4.396;2022-10-17T16:45:05;6.60;;;5.90;;
23099;SDS011;53791;50.696;4.396;2022-10-17T16:47:33;6.20;;;5.70;;
23099;SDS011;53791;50.696;4.396;2022-10-17T16:50:01;5.95;;;5.50;;
23099;SDS011;53791;50.696;4.396;2022-10-17T16:55:14;6.20;;;5.78;;
23099;SDS011;53791;50.696;4.396;2022-10-17T16:57:44;5.78;;;5.37;;
23099;SDS011;53791;50.696;4.396;2022-10-17T17:00:13;6.55;;;5.97;;